sensor_id;sensor_type;location;lat;lon;timestamp;P1;durP1;ratioP1;P2;durP2;ratioP2
32826;SDS011;51059;42.058;27.986;2023-04-01T00:00:51;8.23;;;4.10;;
32826;SDS011;51059;42.058;27.986;2023-04-01T00:03:18;10.03;;;4.10;;
32826;SDS011;51059;42.058;27.986;2023-04-01T00:05:44;13.30;;;4.30;;
32826;SDS011;51059;42.058;27.986;2023-04-01T00:08:10;13.30;;;4.37;;
32826;SDS011;51059;42.058;27.986;2023-04-01T00:10:36;7.13;;;3.90;;
32826;SDS011;51059;42.058;27.986;2023-04-01T00:13:02;7.47;;;4.10;;
32826;SDS011;51059;42.058;27.986;2023-04-01T00:15:27;11.00;;;4.00;;
32826;SDS011;51059;42.058;27.986;2023-04-01T00:17:53;9.00;;;4.33;;
32826;SDS011;51059;42.058;27.986;2023-04-01T00:20:19;9.67;;;3.80;;
32826;SDS011;51059;42.058;27.986;2023-04-01T00:22:45;11.13;;;4.00;;
32826;SDS011;51059;42.058;27.986;2023-04-01T00:25:11;7.83;;;3.70;;
32826;SDS011;51059;42.058;27.986;2023-04-01T00:27:36;6.87;;;3.37;;
32826;SDS011;51059;42.058;27.986;2023-04-01T00:30:02;12.40;;;3.97;;
32826;SDS011;51059;42.058;27.986;2023-04-01T00:32:28;8.37;;;4.37;;
32826;SDS011;51059;42.058;27.986;2023-04-01T00:34:55;7.20;;;3.30;;
32826;SDS011;51059;42.058;27.986;2023-04-01T00:37:21;8.67;;;3.93;;
32826;SDS011;51059;42.058;27.986;2023-04-01T00:39:47;8.20;;;4.20;;
32826;SDS011;51059;42.058;27.986;2023-04-01T00:42:13;9.10;;;4.13;;
32826;SDS011;51059;42.058;27.986;2023-04-01T00:44:39;8.97;;;3.73;;
32826;SDS011;51059;42.058;27.986;2023-04-01T00:47:05;6.57;;;3.47;;
32826;SDS011;51059;42.058;27.986;2023-04-01T00:49:32;10.53;;;3.50;;
32826;SDS011;51059;42.058;27.986;2023-04-01T00:52:01;10.37;;;3.60;;
32826;SDS011;51059;42.058;27.986;2023-04-01T00:54:28;8.33;;;3.30;;
32826;SDS011;51059;42.058;27.986;2023-04-01T00:56:59;7.33;;;3.40;;
32826;SDS011;51059;42.058;27.986;2023-04-01T00:59:31;10.17;;;3.70;;
32826;SDS011;51059;42.058;27.986;2023-04-01T01:02:03;10.07;;;3.87;;
32826;SDS011;51059;42.058;27.986;2023-04-01T01:04:32;10.07;;;3.80;;
32826;SDS011;51059;42.058;27.986;2023-04-01T01:10:12;10.80;;;3.67;;
32826;SDS011;51059;42.058;27.986;2023-04-01T01:12:46;7.00;;;3.73;;
32826;SDS011;51059;42.058;27.986;2023-04-01T01:15:25;9.53;;;3.60;;
32826;SDS011;51059;42.058;27.986;2023-04-01T01:28:29;10.63;;;4.17;;
32826;SDS011;51059;42.058;27.986;2023-04-01T01:36:13;7.73;;;4.00;;
32826;SDS011;51059;42.058;27.986;2023-04-01T01:38:41;13.67;;;4.43;;
32826;SDS011;51059;42.058;27.986;2023-04-01T01:41:07;10.60;;;4.10;;
32826;SDS011;51059;42.058;27.986;2023-04-01T01:43:35;10.40;;;3.80;;
32826;SDS011;51059;42.058;27.986;2023-04-01T01:46:09;10.23;;;4.47;;
32826;SDS011;51059;42.058;27.986;2023-04-01T01:48:37;10.17;;;4.43;;
32826;SDS011;51059;42.058;27.986;2023-04-01T01:51:05;8.23;;;3.60;;
32826;SDS011;51059;42.058;27.986;2023-04-01T01:53:31;10.43;;;4.00;;
32826;SDS011;51059;42.058;27.986;2023-04-01T01:55:57;7.73;;;3.93;;
32826;SDS011;51059;42.058;27.986;2023-04-01T01:58:24;7.57;;;3.77;;
32826;SDS011;51059;42.058;27.986;2023-04-01T02:00:53;7.77;;;3.80;;
32826;SDS011;51059;42.058;27.986;2023-04-01T02:03:21;7.70;;;4.20;;
32826;SDS011;51059;42.058;27.986;2023-04-01T02:05:49;6.70;;;4.13;;
32826;SDS011;51059;42.058;27.986;2023-04-01T02:08:16;11.97;;;3.83;;
32826;SDS011;51059;42.058;27.986;2023-04-01T02:10:49;7.60;;;4.10;;
32826;SDS011;51059;42.058;27.986;2023-04-01T02:13:33;7.73;;;4.20;;
32826;SDS011;51059;42.058;27.986;2023-04-01T02:16:15;10.33;;;4.00;;
32826;SDS011;51059;42.058;27.986;2023-04-01T02:18:46;8.50;;;4.20;;
32826;SDS011;51059;42.058;27.986;2023-04-01T02:21:14;9.10;;;4.07;;
32826;SDS011;51059;42.058;27.986;2023-04-01T02:23:40;10.23;;;4.00;;
32826;SDS011;51059;42.058;27.986;2023-04-01T02:26:06;8.37;;;3.87;;
32826;SDS011;51059;42.058;27.986;2023-04-01T02:28:32;8.53;;;3.90;;
32826;SDS011;51059;42.058;27.986;2023-04-01T02:30:58;7.27;;;4.20;;
32826;SDS011;51059;42.058;27.986;2023-04-01T02:33:25;9.17;;;3.87;;
32826;SDS011;51059;42.058;27.986;2023-04-01T02:35:52;11.77;;;3.90;;
32826;SDS011;51059;42.058;27.986;2023-04-01T02:38:17;9.00;;;3.87;;
32826;SDS011;51059;42.058;27.986;2023-04-01T02:40:46;7.93;;;3.90;;
32826;SDS011;51059;42.058;27.986;2023-04-01T02:43:13;8.40;;;4.60;;
32826;SDS011;51059;42.058;27.986;2023-04-01T02:45:39;7.50;;;4.33;;
32826;SDS011;51059;42.058;27.986;2023-04-01T02:48:05;7.40;;;4.00;;
32826;SDS011;51059;42.058;27.986;2023-04-01T02:50:31;9.37;;;4.17;;
32826;SDS011;51059;42.058;27.986;2023-04-01T02:52:56;10.13;;;3.97;;
32826;SDS011;51059;42.058;27.986;2023-04-01T02:55:22;8.33;;;3.97;;
32826;SDS011;51059;42.058;27.986;2023-04-01T02:57:47;11.60;;;4.23;;
32826;SDS011;51059;42.058;27.986;2023-04-01T03:00:13;8.10;;;3.80;;
32826;SDS011;51059;42.058;27.986;2023-04-01T03:02:39;8.80;;;4.00;;
32826;SDS011;51059;42.058;27.986;2023-04-01T03:05:05;7.77;;;4.10;;
32826;SDS011;51059;42.058;27.986;2023-04-01T03:07:31;6.07;;;3.97;;
32826;SDS011;51059;42.058;27.986;2023-04-01T03:09:56;10.67;;;4.27;;
32826;SDS011;51059;42.058;27.986;2023-04-01T03:12:22;8.17;;;4.13;;
32826;SDS011;51059;42.058;27.986;2023-04-01T03:14:48;14.50;;;4.40;;
32826;SDS011;51059;42.058;27.986;2023-04-01T03:17:13;5.27;;;3.90;;
32826;SDS011;51059;42.058;27.986;2023-04-01T03:19:39;8.27;;;3.90;;
32826;SDS011;51059;42.058;27.986;2023-04-01T03:22:05;8.43;;;4.20;;
32826;SDS011;51059;42.058;27.986;2023-04-01T03:24:30;7.13;;;3.93;;
32826;SDS011;51059;42.058;27.986;2023-04-01T03:26:56;8.00;;;4.00;;
32826;SDS011;51059;42.058;27.986;2023-04-01T03:29:21;7.37;;;4.07;;
32826;SDS011;51059;42.058;27.986;2023-04-01T03:31:47;10.17;;;4.10;;
32826;SDS011;51059;42.058;27.986;2023-04-01T03:34:13;13.30;;;4.87;;
32826;SDS011;51059;42.058;27.986;2023-04-01T03:36:38;7.27;;;3.97;;
32826;SDS011;51059;42.058;27.986;2023-04-01T03:39:04;12.40;;;4.40;;
32826;SDS011;51059;42.058;27.986;2023-04-01T03:41:30;16.93;;;6.83;;
32826;SDS011;51059;42.058;27.986;2023-04-01T03:43:55;14.50;;;7.30;;
32826;SDS011;51059;42.058;27.986;2023-04-01T03:46:21;11.40;;;5.23;;
32826;SDS011;51059;42.058;27.986;2023-04-01T03:48:47;9.63;;;5.03;;
32826;SDS011;51059;42.058;27.986;2023-04-01T03:51:12;9.97;;;4.57;;
32826;SDS011;51059;42.058;27.986;2023-04-01T03:53:38;6.40;;;4.13;;
32826;SDS011;51059;42.058;27.986;2023-04-01T03:56:04;10.80;;;4.07;;
32826;SDS011;51059;42.058;27.986;2023-04-01T03:58:30;8.00;;;4.33;;
32826;SDS011;51059;42.058;27.986;2023-04-01T04:00:56;9.73;;;4.60;;
32826;SDS011;51059;42.058;27.986;2023-04-01T04:03:22;10.70;;;4.20;;
32826;SDS011;51059;42.058;27.986;2023-04-01T04:05:48;15.13;;;4.80;;
32826;SDS011;51059;42.058;27.986;2023-04-01T04:08:14;14.33;;;4.17;;
32826;SDS011;51059;42.058;27.986;2023-04-01T04:10:40;8.60;;;4.40;;
32826;SDS011;51059;42.058;27.986;2023-04-01T04:13:06;9.43;;;4.30;;
32826;SDS011;51059;42.058;27.986;2023-04-01T04:15:32;12.33;;;4.73;;
32826;SDS011;51059;42.058;27.986;2023-04-01T04:17:58;9.37;;;4.43;;
32826;SDS011;51059;42.058;27.986;2023-04-01T04:20:23;12.23;;;4.27;;
32826;SDS011;51059;42.058;27.986;2023-04-01T04:22:49;8.23;;;3.93;;
32826;SDS011;51059;42.058;27.986;2023-04-01T04:25:15;11.43;;;4.30;;
32826;SDS011;51059;42.058;27.986;2023-04-01T04:27:40;9.17;;;3.97;;
32826;SDS011;51059;42.058;27.986;2023-04-01T04:30:07;8.47;;;3.83;;
32826;SDS011;51059;42.058;27.986;2023-04-01T04:32:33;7.73;;;3.83;;
32826;SDS011;51059;42.058;27.986;2023-04-01T04:34:59;6.10;;;3.83;;
32826;SDS011;51059;42.058;27.986;2023-04-01T04:37:25;9.03;;;3.80;;
32826;SDS011;51059;42.058;27.986;2023-04-01T04:39:51;10.77;;;3.90;;
32826;SDS011;51059;42.058;27.986;2023-04-01T04:42:17;9.40;;;5.80;;
32826;SDS011;51059;42.058;27.986;2023-04-01T04:44:42;8.13;;;3.73;;
32826;SDS011;51059;42.058;27.986;2023-04-01T04:47:08;8.20;;;3.50;;
32826;SDS011;51059;42.058;27.986;2023-04-01T04:49:34;6.60;;;3.20;;
32826;SDS011;51059;42.058;27.986;2023-04-01T04:52:00;6.33;;;3.30;;
32826;SDS011;51059;42.058;27.986;2023-04-01T04:54:25;5.93;;;2.90;;
32826;SDS011;51059;42.058;27.986;2023-04-01T04:56:51;7.60;;;2.90;;
32826;SDS011;51059;42.058;27.986;2023-04-01T04:59:17;6.57;;;2.70;;
32826;SDS011;51059;42.058;27.986;2023-04-01T05:01:43;7.97;;;3.00;;
32826;SDS011;51059;42.058;27.986;2023-04-01T05:04:09;7.13;;;3.17;;
32826;SDS011;51059;42.058;27.986;2023-04-01T05:06:34;6.90;;;3.30;;
32826;SDS011;51059;42.058;27.986;2023-04-01T05:09:00;9.00;;;3.27;;
32826;SDS011;51059;42.058;27.986;2023-04-01T05:11:25;5.40;;;2.80;;
32826;SDS011;51059;42.058;27.986;2023-04-01T05:13:51;8.53;;;3.40;;
32826;SDS011;51059;42.058;27.986;2023-04-01T05:16:18;5.27;;;3.00;;
32826;SDS011;51059;42.058;27.986;2023-04-01T05:18:44;6.43;;;2.80;;
32826;SDS011;51059;42.058;27.986;2023-04-01T05:21:11;8.53;;;3.00;;
32826;SDS011;51059;42.058;27.986;2023-04-01T05:23:38;7.73;;;3.17;;
32826;SDS011;51059;42.058;27.986;2023-04-01T05:26:04;7.23;;;3.33;;
32826;SDS011;51059;42.058;27.986;2023-04-01T05:28:31;8.13;;;2.97;;
32826;SDS011;51059;42.058;27.986;2023-04-01T05:30:58;5.40;;;2.60;;
32826;SDS011;51059;42.058;27.986;2023-04-01T05:33:24;6.10;;;2.53;;
32826;SDS011;51059;42.058;27.986;2023-04-01T05:35:50;5.97;;;2.63;;
32826;SDS011;51059;42.058;27.986;2023-04-01T05:38:15;6.23;;;3.30;;
32826;SDS011;51059;42.058;27.986;2023-04-01T05:40:41;6.23;;;3.07;;
32826;SDS011;51059;42.058;27.986;2023-04-01T05:43:07;8.20;;;3.07;;
32826;SDS011;51059;42.058;27.986;2023-04-01T05:45:32;12.83;;;3.57;;
32826;SDS011;51059;42.058;27.986;2023-04-01T05:47:58;8.80;;;3.03;;
32826;SDS011;51059;42.058;27.986;2023-04-01T05:50:24;7.27;;;3.40;;
32826;SDS011;51059;42.058;27.986;2023-04-01T05:52:50;9.33;;;3.53;;
32826;SDS011;51059;42.058;27.986;2023-04-01T05:55:16;9.30;;;3.63;;
32826;SDS011;51059;42.058;27.986;2023-04-01T05:57:41;11.60;;;4.33;;
32826;SDS011;51059;42.058;27.986;2023-04-01T06:00:07;11.63;;;4.17;;
32826;SDS011;51059;42.058;27.986;2023-04-01T06:02:33;10.37;;;4.53;;
32826;SDS011;51059;42.058;27.986;2023-04-01T06:05:02;10.20;;;4.40;;
32826;SDS011;51059;42.058;27.986;2023-04-01T06:07:36;5.57;;;3.30;;
32826;SDS011;51059;42.058;27.986;2023-04-01T06:10:05;8.43;;;3.90;;
32826;SDS011;51059;42.058;27.986;2023-04-01T06:15:30;8.60;;;3.20;;
32826;SDS011;51059;42.058;27.986;2023-04-01T06:23:34;10.03;;;3.43;;
32826;SDS011;51059;42.058;27.986;2023-04-01T06:48:05;15.43;;;3.07;;
32826;SDS011;51059;42.058;27.986;2023-04-01T06:54:06;11.63;;;3.20;;
32826;SDS011;51059;42.058;27.986;2023-04-01T06:56:36;9.27;;;2.90;;
32826;SDS011;51059;42.058;27.986;2023-04-01T06:59:08;12.23;;;3.50;;
32826;SDS011;51059;42.058;27.986;2023-04-01T07:04:11;12.07;;;3.43;;
32826;SDS011;51059;42.058;27.986;2023-04-01T07:06:47;11.87;;;3.00;;
32826;SDS011;51059;42.058;27.986;2023-04-01T07:09:18;9.50;;;3.73;;
32826;SDS011;51059;42.058;27.986;2023-04-01T07:11:46;13.87;;;3.87;;
32826;SDS011;51059;42.058;27.986;2023-04-01T07:19:35;8.73;;;3.00;;
32826;SDS011;51059;42.058;27.986;2023-04-01T07:24:56;13.40;;;3.53;;
32826;SDS011;51059;42.058;27.986;2023-04-01T07:27:23;11.77;;;3.20;;
32826;SDS011;51059;42.058;27.986;2023-04-01T07:29:48;11.73;;;3.83;;
32826;SDS011;51059;42.058;27.986;2023-04-01T07:32:19;14.97;;;3.53;;
32826;SDS011;51059;42.058;27.986;2023-04-01T07:38:01;14.47;;;4.00;;
32826;SDS011;51059;42.058;27.986;2023-04-01T07:40:51;10.20;;;3.60;;
32826;SDS011;51059;42.058;27.986;2023-04-01T07:51:23;14.80;;;4.00;;
32826;SDS011;51059;42.058;27.986;2023-04-01T07:54:09;13.03;;;4.03;;
32826;SDS011;51059;42.058;27.986;2023-04-01T08:18:45;12.77;;;4.30;;
32826;SDS011;51059;42.058;27.986;2023-04-01T08:21:25;14.17;;;3.83;;
32826;SDS011;51059;42.058;27.986;2023-04-01T08:23:57;11.60;;;3.73;;
32826;SDS011;51059;42.058;27.986;2023-04-01T08:26:34;15.43;;;3.73;;
32826;SDS011;51059;42.058;27.986;2023-04-01T08:34:20;16.90;;;4.40;;
32826;SDS011;51059;42.058;27.986;2023-04-01T08:36:50;16.00;;;3.90;;
32826;SDS011;51059;42.058;27.986;2023-04-01T08:39:30;16.53;;;4.03;;
32826;SDS011;51059;42.058;27.986;2023-04-01T08:52:52;11.20;;;4.33;;
32826;SDS011;51059;42.058;27.986;2023-04-01T08:58:31;17.53;;;4.43;;
32826;SDS011;51059;42.058;27.986;2023-04-01T09:03:44;14.95;;;4.25;;
32826;SDS011;51059;42.058;27.986;2023-04-01T09:09:02;11.90;;;4.23;;
32826;SDS011;51059;42.058;27.986;2023-04-01T09:19:22;15.27;;;4.43;;
32826;SDS011;51059;42.058;27.986;2023-04-01T09:27:34;12.57;;;4.73;;
32826;SDS011;51059;42.058;27.986;2023-04-01T09:46:43;14.90;;;4.93;;
32826;SDS011;51059;42.058;27.986;2023-04-01T09:52:50;16.73;;;5.27;;
32826;SDS011;51059;42.058;27.986;2023-04-01T10:01:25;13.30;;;5.20;;
32826;SDS011;51059;42.058;27.986;2023-04-01T10:06:49;17.40;;;4.83;;
32826;SDS011;51059;42.058;27.986;2023-04-01T10:20:36;16.67;;;6.03;;
32826;SDS011;51059;42.058;27.986;2023-04-01T10:25:50;11.90;;;5.23;;
32826;SDS011;51059;42.058;27.986;2023-04-01T10:40:38;24.97;;;4.83;;
32826;SDS011;51059;42.058;27.986;2023-04-01T10:54:18;11.60;;;4.40;;
32826;SDS011;51059;42.058;27.986;2023-04-01T10:56:55;16.47;;;4.57;;
32826;SDS011;51059;42.058;27.986;2023-04-01T10:59:31;14.53;;;5.07;;
32826;SDS011;51059;42.058;27.986;2023-04-01T11:02:14;12.47;;;4.63;;
32826;SDS011;51059;42.058;27.986;2023-04-01T11:17:27;12.53;;;4.20;;
32826;SDS011;51059;42.058;27.986;2023-04-01T11:33:45;15.93;;;4.43;;
32826;SDS011;51059;42.058;27.986;2023-04-01T11:42:17;22.07;;;4.80;;
32826;SDS011;51059;42.058;27.986;2023-04-01T11:44:46;13.90;;;3.80;;
32826;SDS011;51059;42.058;27.986;2023-04-01T11:47:44;16.20;;;4.47;;
32826;SDS011;51059;42.058;27.986;2023-04-01T11:50:20;14.13;;;4.10;;
32826;SDS011;51059;42.058;27.986;2023-04-01T12:13:10;20.23;;;4.53;;
32826;SDS011;51059;42.058;27.986;2023-04-01T12:18:27;19.30;;;4.60;;
32826;SDS011;51059;42.058;27.986;2023-04-01T12:24:10;13.93;;;3.83;;
32826;SDS011;51059;42.058;27.986;2023-04-01T12:30:06;16.90;;;4.05;;
32826;SDS011;51059;42.058;27.986;2023-04-01T12:32:40;20.63;;;3.80;;
32826;SDS011;51059;42.058;27.986;2023-04-01T12:35:39;18.47;;;4.03;;
32826;SDS011;51059;42.058;27.986;2023-04-01T12:38:30;18.73;;;4.10;;
32826;SDS011;51059;42.058;27.986;2023-04-01T12:41:07;16.60;;;4.10;;
32826;SDS011;51059;42.058;27.986;2023-04-01T12:43:55;18.80;;;4.40;;
32826;SDS011;51059;42.058;27.986;2023-04-01T12:57:58;21.73;;;4.63;;
32826;SDS011;51059;42.058;27.986;2023-04-01T13:00:51;20.33;;;4.37;;
32826;SDS011;51059;42.058;27.986;2023-04-01T13:06:36;20.83;;;4.43;;
32826;SDS011;51059;42.058;27.986;2023-04-01T13:17:53;15.57;;;4.40;;
32826;SDS011;51059;42.058;27.986;2023-04-01T13:21:50;24.53;;;4.87;;
32826;SDS011;51059;42.058;27.986;2023-04-01T13:26:24;18.50;;;4.20;;
32826;SDS011;51059;42.058;27.986;2023-04-01T13:31:49;17.43;;;4.27;;
32826;SDS011;51059;42.058;27.986;2023-04-01T13:37:15;16.27;;;3.83;;
32826;SDS011;51059;42.058;27.986;2023-04-01T13:42:53;21.13;;;4.50;;
32826;SDS011;51059;42.058;27.986;2023-04-01T13:45:23;15.73;;;3.77;;
32826;SDS011;51059;42.058;27.986;2023-04-01T13:48:04;14.17;;;4.40;;
32826;SDS011;51059;42.058;27.986;2023-04-01T13:51:09;18.57;;;4.40;;
32826;SDS011;51059;42.058;27.986;2023-04-01T13:56:42;20.73;;;4.43;;
32826;SDS011;51059;42.058;27.986;2023-04-01T14:12:59;18.03;;;4.60;;
32826;SDS011;51059;42.058;27.986;2023-04-01T14:15:37;18.67;;;4.67;;
32826;SDS011;51059;42.058;27.986;2023-04-01T14:24:02;21.03;;;4.80;;
32826;SDS011;51059;42.058;27.986;2023-04-01T14:29:24;21.00;;;5.33;;
32826;SDS011;51059;42.058;27.986;2023-04-01T14:51:39;19.93;;;4.53;;
32826;SDS011;51059;42.058;27.986;2023-04-01T15:04:26;17.93;;;4.93;;
32826;SDS011;51059;42.058;27.986;2023-04-01T15:18:17;17.97;;;5.00;;
32826;SDS011;51059;42.058;27.986;2023-04-01T15:21:10;20.37;;;5.20;;
32826;SDS011;51059;42.058;27.986;2023-04-01T15:23:48;17.57;;;5.10;;
32826;SDS011;51059;42.058;27.986;2023-04-01T15:51:39;17.40;;;4.50;;
32826;SDS011;51059;42.058;27.986;2023-04-01T15:54:50;11.63;;;3.97;;
32826;SDS011;51059;42.058;27.986;2023-04-01T16:00:23;24.73;;;4.43;;
32826;SDS011;51059;42.058;27.986;2023-04-01T16:11:15;21.77;;;4.03;;
32826;SDS011;51059;42.058;27.986;2023-04-01T16:13:55;15.53;;;3.90;;
32826;SDS011;51059;42.058;27.986;2023-04-01T16:16:44;20.27;;;4.63;;
32826;SDS011;51059;42.058;27.986;2023-04-01T16:19:59;15.10;;;4.00;;
32826;SDS011;51059;42.058;27.986;2023-04-01T16:22:16;23.33;;;4.90;;
32826;SDS011;51059;42.058;27.986;2023-04-01T16:30:58;17.13;;;3.67;;
32826;SDS011;51059;42.058;27.986;2023-04-01T16:38:37;14.87;;;3.27;;
32826;SDS011;51059;42.058;27.986;2023-04-01T16:41:10;16.77;;;3.20;;
32826;SDS011;51059;42.058;27.986;2023-04-01T16:43:44;22.20;;;3.80;;
32826;SDS011;51059;42.058;27.986;2023-04-01T16:46:15;19.93;;;4.30;;
32826;SDS011;51059;42.058;27.986;2023-04-01T16:51:25;18.73;;;4.03;;
32826;SDS011;51059;42.058;27.986;2023-04-01T16:54:13;18.03;;;3.60;;
32826;SDS011;51059;42.058;27.986;2023-04-01T16:56:47;20.03;;;3.73;;
32826;SDS011;51059;42.058;27.986;2023-04-01T17:04:37;19.77;;;3.73;;
32826;SDS011;51059;42.058;27.986;2023-04-01T17:21:05;25.70;;;4.90;;
32826;SDS011;51059;42.058;27.986;2023-04-01T17:29:17;18.23;;;3.50;;
32826;SDS011;51059;42.058;27.986;2023-04-01T17:43:13;21.77;;;4.03;;
32826;SDS011;51059;42.058;27.986;2023-04-01T17:48:45;11.30;;;3.27;;
32826;SDS011;51059;42.058;27.986;2023-04-01T17:51:19;24.00;;;4.40;;
32826;SDS011;51059;42.058;27.986;2023-04-01T18:09:15;15.07;;;3.70;;
32826;SDS011;51059;42.058;27.986;2023-04-01T18:11:53;18.13;;;4.20;;
32826;SDS011;51059;42.058;27.986;2023-04-01T18:17:25;20.33;;;4.53;;
32826;SDS011;51059;42.058;27.986;2023-04-01T18:23:21;21.63;;;4.53;;
32826;SDS011;51059;42.058;27.986;2023-04-01T18:25:54;17.40;;;4.90;;
32826;SDS011;51059;42.058;27.986;2023-04-01T18:28:41;22.67;;;4.60;;
32826;SDS011;51059;42.058;27.986;2023-04-01T18:31:19;24.03;;;4.87;;
32826;SDS011;51059;42.058;27.986;2023-04-01T18:39:16;22.00;;;5.33;;
32826;SDS011;51059;42.058;27.986;2023-04-01T18:53:19;18.77;;;4.87;;
32826;SDS011;51059;42.058;27.986;2023-04-01T18:55:55;22.77;;;5.50;;
32826;SDS011;51059;42.058;27.986;2023-04-01T18:58:37;24.40;;;5.23;;
32826;SDS011;51059;42.058;27.986;2023-04-01T19:06:34;30.97;;;6.73;;
32826;SDS011;51059;42.058;27.986;2023-04-01T19:09:16;23.23;;;5.93;;
32826;SDS011;51059;42.058;27.986;2023-04-01T19:11:47;25.13;;;6.07;;
32826;SDS011;51059;42.058;27.986;2023-04-01T19:17:10;21.40;;;5.50;;
32826;SDS011;51059;42.058;27.986;2023-04-01T19:19:48;20.83;;;5.70;;
32826;SDS011;51059;42.058;27.986;2023-04-01T19:41:57;6.73;;;2.53;;
32826;SDS011;51059;42.058;27.986;2023-04-01T19:44:39;10.30;;;2.90;;
32826;SDS011;51059;42.058;27.986;2023-04-01T19:50:48;8.30;;;2.50;;
32826;SDS011;51059;42.058;27.986;2023-04-01T19:53:51;7.07;;;2.30;;
32826;SDS011;51059;42.058;27.986;2023-04-01T19:56:16;6.40;;;2.80;;
32826;SDS011;51059;42.058;27.986;2023-04-01T20:01:30;7.47;;;3.00;;
32826;SDS011;51059;42.058;27.986;2023-04-01T20:04:36;8.77;;;2.87;;
32826;SDS011;51059;42.058;27.986;2023-04-01T20:07:09;6.90;;;2.83;;
32826;SDS011;51059;42.058;27.986;2023-04-01T20:12:46;6.40;;;2.67;;
32826;SDS011;51059;42.058;27.986;2023-04-01T20:17:56;7.73;;;2.80;;
32826;SDS011;51059;42.058;27.986;2023-04-01T20:20:24;7.47;;;2.57;;
32826;SDS011;51059;42.058;27.986;2023-04-01T20:25:41;8.13;;;2.37;;
32826;SDS011;51059;42.058;27.986;2023-04-01T20:36:16;4.43;;;2.20;;
32826;SDS011;51059;42.058;27.986;2023-04-01T20:50:34;5.73;;;2.40;;
32826;SDS011;51059;42.058;27.986;2023-04-01T21:01:31;4.20;;;1.87;;
32826;SDS011;51059;42.058;27.986;2023-04-01T21:29:49;4.83;;;2.40;;
32826;SDS011;51059;42.058;27.986;2023-04-01T21:32:41;4.00;;;2.40;;
32826;SDS011;51059;42.058;27.986;2023-04-01T21:35:21;4.47;;;2.43;;
32826;SDS011;51059;42.058;27.986;2023-04-01T22:00:17;5.57;;;2.60;;
32826;SDS011;51059;42.058;27.986;2023-04-01T22:05:44;4.30;;;2.37;;
32826;SDS011;51059;42.058;27.986;2023-04-01T22:14:02;8.27;;;2.90;;
32826;SDS011;51059;42.058;27.986;2023-04-01T22:27:37;5.73;;;2.43;;
32826;SDS011;51059;42.058;27.986;2023-04-01T22:32:47;4.83;;;2.40;;
32826;SDS011;51059;42.058;27.986;2023-04-01T22:35:22;3.63;;;2.07;;
32826;SDS011;51059;42.058;27.986;2023-04-01T22:38:14;5.90;;;2.70;;
32826;SDS011;51059;42.058;27.986;2023-04-01T22:50:31;7.23;;;4.50;;
32826;SDS011;51059;42.058;27.986;2023-04-01T22:52:46;8.57;;;6.63;;
32826;SDS011;51059;42.058;27.986;2023-04-01T22:55:15;8.97;;;6.40;;
32826;SDS011;51059;42.058;27.986;2023-04-01T22:57:46;7.13;;;4.67;;
32826;SDS011;51059;42.058;27.986;2023-04-01T23:03:00;6.60;;;3.97;;
32826;SDS011;51059;42.058;27.986;2023-04-01T23:05:52;9.03;;;5.33;;
32826;SDS011;51059;42.058;27.986;2023-04-01T23:11:20;6.57;;;4.83;;
32826;SDS011;51059;42.058;27.986;2023-04-01T23:13:49;5.87;;;3.60;;
32826;SDS011;51059;42.058;27.986;2023-04-01T23:16:32;6.53;;;3.60;;
32826;SDS011;51059;42.058;27.986;2023-04-01T23:19:09;6.20;;;3.30;;
32826;SDS011;51059;42.058;27.986;2023-04-01T23:21:44;6.67;;;3.27;;
32826;SDS011;51059;42.058;27.986;2023-04-01T23:27:00;6.77;;;3.13;;
32826;SDS011;51059;42.058;27.986;2023-04-01T23:29:31;8.57;;;3.60;;
32826;SDS011;51059;42.058;27.986;2023-04-01T23:32:01;8.13;;;3.33;;
32826;SDS011;51059;42.058;27.986;2023-04-01T23:34:31;4.60;;;2.73;;
32826;SDS011;51059;42.058;27.986;2023-04-01T23:37:00;7.67;;;3.10;;
32826;SDS011;51059;42.058;27.986;2023-04-01T23:39:38;6.83;;;3.10;;
32826;SDS011;51059;42.058;27.986;2023-04-01T23:44:55;5.27;;;3.20;;
32826;SDS011;51059;42.058;27.986;2023-04-01T23:47:35;6.03;;;3.47;;
32826;SDS011;51059;42.058;27.986;2023-04-01T23:50:07;5.33;;;3.57;;
32826;SDS011;51059;42.058;27.986;2023-04-01T23:52:40;6.87;;;3.60;;
32826;SDS011;51059;42.058;27.986;2023-04-01T23:58:01;4.90;;;3.30;;
